Time,TemperatureF,DewpointF,PressureIn,WindDirection,WindDirectionDegrees,WindSpeedMPH,WindSpeedGustMPH,Humidity,HourlyPrecipIn,Conditions,Clouds,dailyrainin,SoftwareType,DateUTC
2013-03-25 13:20:00,44.3,22.1,29.78,ESE,109,4.0,4.0,41,0.00,,,0.02,Wunderground v.1.15,2013-03-25 17:20:00,
2013-03-25 13:30:00,44.2,23.6,29.77,East,98,5.0,7.0,44,0.00,,,0.02,Wunderground v.1.15,2013-03-25 17:30:00,
2013-03-25 13:35:00,44.1,25.1,29.78,East,94,6.0,6.0,47,0.00,,,0.02,Wunderground v.1.15,2013-03-25 17:35:00,
2013-03-25 13:45:00,-999.0,-99.9,0.00,North,-999,-999.0,-999.0,-999,0.00,,,0.00,weatherlink.com 1.10,2013-03-25 17:45:00,
2013-03-25 14:00:00,43.9,23.0,29.77,SE,130,8.0,16.0,43,0.00,,,0.00,weatherlink.com 1.10,2013-03-25 18:00:00,
2013-03-25 14:15:00,45.1,24.0,29.77,ESE,109,2.0,14.0,44,0.00,,,0.00,weatherlink.com 1.10,2013-03-25 18:15:00,
2013-03-25 14:30:00,43.6,25.0,29.77,ESE,119,10.0,16.0,49,0.00,,,0.00,weatherlink.com 1.10,2013-03-25 18:30:00,
2013-03-25 14:45:00,44.7,24.0,29.77,SSE,147,8.0,12.0,45,0.00,,,0.00,weatherlink.com 1.10,2013-03-25 18:45:00,
2013-03-25 15:00:00,45.4,25.0,29.77,SSE,152,4.0,15.0,45,0.00,,,0.00,weatherlink.com 1.10,2013-03-25 19:00:00,
2013-03-25 15:15:00,44.3,24.0,29.77,ENE,66,15.0,21.0,45,0.00,,,0.00,weatherlink.com 1.10,2013-03-25 19:15:00,
2013-03-25 15:30:00,43.3,23.0,29.78,ESE,117,8.0,14.0,45,0.00,,,0.00,weatherlink.com 1.10,2013-03-25 19:30:00,
2013-03-25 15:45:00,43.3,23.0,29.78,East,94,7.0,12.0,44,0.00,,,0.00,weatherlink.com 1.10,2013-03-25 19:45:00,
2013-03-25 16:00:00,44.0,23.0,29.78,ESE,111,10.0,17.0,44,0.00,,,0.00,weatherlink.com 1.10,2013-03-25 20:00:00,
2013-03-25 16:16:00,43.9,22.0,29.79,ESE,119,12.0,16.0,42,0.00,,,0.00,weatherlink.com 1.10,2013-03-25 20:16:00,
2013-03-25 16:30:00,43.7,24.0,29.79,East,101,7.0,16.0,46,0.00,,,0.00,weatherlink.com 1.10,2013-03-25 20:30:00,
2013-03-25 16:45:00,44.4,24.0,29.80,ESE,119,3.0,15.0,45,0.00,,,0.00,weatherlink.com 1.10,2013-03-25 20:45:00,
2013-03-25 17:00:00,43.3,23.0,29.80,South,169,3.0,16.0,44,0.00,,,0.00,weatherlink.com 1.10,2013-03-25 21:00:00,
2013-03-25 17:15:00,43.3,23.0,29.81,ENE,74,3.0,15.0,45,0.00,,,0.00,weatherlink.com 1.10,2013-03-25 21:15:00,
2013-03-25 17:30:00,43.3,24.0,29.81,South,173,7.0,16.0,46,0.00,,,0.00,weatherlink.com 1.10,2013-03-25 21:30:00,
2013-03-25 17:45:00,44.1,23.0,29.82,East,95,3.0,10.0,44,0.00,,,0.00,weatherlink.com 1.10,2013-03-25 21:45:00,
2013-03-25 18:00:00,45.0,21.0,29.82,ESE,103,2.0,19.0,39,0.00,,,0.00,weatherlink.com 1.10,2013-03-25 22:00:00,
2013-03-25 18:15:00,45.4,22.0,29.83,ESE,122,2.0,13.0,40,0.00,,,0.00,weatherlink.com 1.10,2013-03-25 22:15:00,
2013-03-25 18:30:00,45.0,21.0,29.84,ENE,62,5.0,17.0,38,0.00,,,0.00,weatherlink.com 1.10,2013-03-25 22:30:00,
2013-03-25 18:47:00,44.2,22.0,29.85,SSE,150,9.0,18.0,41,0.00,,,0.00,weatherlink.com 1.10,2013-03-25 22:47:00,
2013-03-25 19:01:00,43.2,20.0,29.85,ESE,114,5.0,15.0,40,0.00,,,0.00,weatherlink.com 1.10,2013-03-25 23:01:00,
2013-03-25 19:16:00,41.7,20.0,29.86,South,175,2.0,11.0,42,0.00,,,0.00,weatherlink.com 1.10,2013-03-25 23:16:00,
2013-03-25 19:31:00,40.7,22.0,29.87,East,94,3.0,11.0,48,0.00,,,0.00,weatherlink.com 1.10,2013-03-25 23:31:00,
2013-03-25 19:46:00,39.8,23.0,29.89,ESE,119,2.0,15.0,51,0.00,,,0.00,weatherlink.com 1.10,2013-03-25 23:46:00,
2013-03-25 20:16:00,38.6,24.0,29.90,East,97,5.0,12.0,55,0.00,,,0.00,weatherlink.com 1.10,2013-03-26 00:16:00,
2013-03-25 20:31:00,38.1,24.0,29.91,South,172,0.0,10.0,57,0.00,,,0.00,weatherlink.com 1.10,2013-03-26 00:31:00,
2013-03-25 20:46:00,37.8,24.0,29.91,East,92,5.0,13.0,58,0.00,,,0.00,weatherlink.com 1.10,2013-03-26 00:46:00,
2013-03-25 21:01:00,37.3,24.0,29.92,ESE,111,8.0,10.0,59,0.00,,,0.00,weatherlink.com 1.10,2013-03-26 01:01:00,
2013-03-25 21:16:00,37.1,24.0,29.93,SE,130,0.0,9.0,59,0.00,,,0.00,weatherlink.com 1.10,2013-03-26 01:16:00,
2013-03-25 21:31:00,36.8,24.0,29.93,SE,134,3.0,11.0,60,0.00,,,0.00,weatherlink.com 1.10,2013-03-26 01:31:00,
2013-03-25 21:46:00,36.4,23.0,29.94,East,96,1.0,8.0,59,0.00,,,0.00,weatherlink.com 1.10,2013-03-26 01:46:00,
2013-03-25 22:01:00,36.3,23.0,29.95,SE,125,3.0,9.0,60,0.00,,,0.00,weatherlink.com 1.10,2013-03-26 02:01:00,
2013-03-25 22:31:00,36.1,23.0,29.96,East,94,0.0,9.0,59,0.00,,,0.00,weatherlink.com 1.10,2013-03-26 02:31:00,
2013-03-25 22:47:00,35.9,23.0,29.96,ESE,114,1.0,10.0,60,0.00,,,0.00,weatherlink.com 1.10,2013-03-26 02:47:00,
2013-03-25 23:01:00,35.7,23.0,29.97,East,86,1.0,9.0,60,0.00,,,0.00,weatherlink.com 1.10,2013-03-26 03:01:00,
2013-03-25 23:17:00,35.5,23.0,29.97,East,90,3.0,8.0,61,0.00,,,0.00,weatherlink.com 1.10,2013-03-26 03:17:00,
2013-03-25 23:32:00,35.2,23.0,29.97,ESE,122,1.0,9.0,61,0.00,,,0.00,weatherlink.com 1.10,2013-03-26 03:32:00,
2013-03-25 23:47:00,34.9,23.0,29.98,ENE,73,1.0,7.0,62,0.00,,,0.00,weatherlink.com 1.10,2013-03-26 03:47:00,